sensor_id;sensor_type;location;lat;lon;timestamp;P1;durP1;ratioP1;P2;durP2;ratioP2
56429;SDS011;42332;52.136;20.666;2022-11-02T00:00:27;70.80;;;24.63;;
56429;SDS011;42332;52.136;20.666;2022-11-02T00:02:54;73.75;;;22.90;;
56429;SDS011;42332;52.136;20.666;2022-11-02T00:05:19;70.60;;;23.70;;
56429;SDS011;42332;52.136;20.666;2022-11-02T00:07:49;79.22;;;24.65;;
56429;SDS011;42332;52.136;20.666;2022-11-02T00:10:23;76.88;;;24.40;;
56429;SDS011;42332;52.136;20.666;2022-11-02T00:12:49;65.95;;;23.50;;
56429;SDS011;42332;52.136;20.666;2022-11-02T00:15:15;73.03;;;25.55;;
56429;SDS011;42332;52.136;20.666;2022-11-02T00:17:42;77.55;;;21.95;;
56429;SDS011;42332;52.136;20.666;2022-11-02T00:20:09;72.07;;;24.38;;
56429;SDS011;42332;52.136;20.666;2022-11-02T00:22:35;61.55;;;21.83;;
56429;SDS011;42332;52.136;20.666;2022-11-02T00:25:01;67.55;;;25.40;;
56429;SDS011;42332;52.136;20.666;2022-11-02T00:27:28;79.55;;;24.73;;
56429;SDS011;42332;52.136;20.666;2022-11-02T00:29:54;79.32;;;26.02;;
56429;SDS011;42332;52.136;20.666;2022-11-02T00:32:19;59.08;;;21.90;;
56429;SDS011;42332;52.136;20.666;2022-11-02T00:34:44;75.15;;;22.00;;
56429;SDS011;42332;52.136;20.666;2022-11-02T00:37:10;78.18;;;24.00;;
56429;SDS011;42332;52.136;20.666;2022-11-02T00:39:36;77.53;;;26.00;;
56429;SDS011;42332;52.136;20.666;2022-11-02T00:42:02;80.38;;;26.40;;
56429;SDS011;42332;52.136;20.666;2022-11-02T00:44:27;86.22;;;27.85;;
56429;SDS011;42332;52.136;20.666;2022-11-02T00:46:52;83.18;;;26.98;;
56429;SDS011;42332;52.136;20.666;2022-11-02T00:49:18;91.72;;;28.38;;
56429;SDS011;42332;52.136;20.666;2022-11-02T00:51:43;84.07;;;29.48;;
56429;SDS011;42332;52.136;20.666;2022-11-02T00:54:08;76.38;;;25.85;;
56429;SDS011;42332;52.136;20.666;2022-11-02T00:56:34;99.32;;;27.88;;
56429;SDS011;42332;52.136;20.666;2022-11-02T00:58:59;87.63;;;27.08;;
56429;SDS011;42332;52.136;20.666;2022-11-02T01:01:24;85.95;;;27.58;;
56429;SDS011;42332;52.136;20.666;2022-11-02T01:03:50;92.47;;;28.83;;
56429;SDS011;42332;52.136;20.666;2022-11-02T01:06:15;88.70;;;28.73;;
56429;SDS011;42332;52.136;20.666;2022-11-02T01:08:40;92.30;;;28.42;;
56429;SDS011;42332;52.136;20.666;2022-11-02T01:11:22;93.47;;;28.05;;
56429;SDS011;42332;52.136;20.666;2022-11-02T01:13:51;95.75;;;28.10;;
56429;SDS011;42332;52.136;20.666;2022-11-02T01:16:17;89.30;;;28.05;;
56429;SDS011;42332;52.136;20.666;2022-11-02T01:18:42;92.03;;;27.70;;
56429;SDS011;42332;52.136;20.666;2022-11-02T01:21:08;93.13;;;28.75;;
56429;SDS011;42332;52.136;20.666;2022-11-02T01:23:34;101.75;;;28.92;;
56429;SDS011;42332;52.136;20.666;2022-11-02T01:26:04;107.50;;;29.27;;
56429;SDS011;42332;52.136;20.666;2022-11-02T01:28:30;107.18;;;30.73;;
56429;SDS011;42332;52.136;20.666;2022-11-02T01:30:56;116.88;;;31.08;;
56429;SDS011;42332;52.136;20.666;2022-11-02T01:33:23;111.00;;;30.20;;
56429;SDS011;42332;52.136;20.666;2022-11-02T01:35:48;115.95;;;30.38;;
56429;SDS011;42332;52.136;20.666;2022-11-02T01:38:14;110.95;;;31.70;;
56429;SDS011;42332;52.136;20.666;2022-11-02T01:40:39;108.57;;;28.23;;
56429;SDS011;42332;52.136;20.666;2022-11-02T01:43:20;125.80;;;33.63;;
56429;SDS011;42332;52.136;20.666;2022-11-02T01:45:51;101.95;;;30.15;;
56429;SDS011;42332;52.136;20.666;2022-11-02T01:51:29;125.82;;;34.20;;
56429;SDS011;42332;52.136;20.666;2022-11-02T01:53:58;123.20;;;33.45;;
56429;SDS011;42332;52.136;20.666;2022-11-02T01:56:25;130.38;;;32.58;;
56429;SDS011;42332;52.136;20.666;2022-11-02T01:58:55;127.47;;;34.17;;
56429;SDS011;42332;52.136;20.666;2022-11-02T02:01:24;127.10;;;32.15;;
56429;SDS011;42332;52.136;20.666;2022-11-02T02:03:50;144.80;;;36.05;;
56429;SDS011;42332;52.136;20.666;2022-11-02T02:06:16;130.52;;;33.60;;
56429;SDS011;42332;52.136;20.666;2022-11-02T02:08:43;142.23;;;37.30;;
56429;SDS011;42332;52.136;20.666;2022-11-02T02:11:30;150.90;;;36.28;;
56429;SDS011;42332;52.136;20.666;2022-11-02T02:14:17;130.18;;;35.63;;
56429;SDS011;42332;52.136;20.666;2022-11-02T02:17:17;137.52;;;37.65;;
56429;SDS011;42332;52.136;20.666;2022-11-02T02:30:49;155.77;;;40.17;;
56429;SDS011;42332;52.136;20.666;2022-11-02T02:33:19;156.68;;;37.90;;
56429;SDS011;42332;52.136;20.666;2022-11-02T02:36:04;164.10;;;37.45;;
56429;SDS011;42332;52.136;20.666;2022-11-02T02:41:24;132.50;;;38.08;;
56429;SDS011;42332;52.136;20.666;2022-11-02T02:44:12;144.45;;;39.35;;
56429;SDS011;42332;52.136;20.666;2022-11-02T02:46:56;153.35;;;39.17;;
56429;SDS011;42332;52.136;20.666;2022-11-02T02:49:25;149.98;;;38.80;;
56429;SDS011;42332;52.136;20.666;2022-11-02T02:51:54;156.38;;;41.00;;
56429;SDS011;42332;52.136;20.666;2022-11-02T02:54:22;129.55;;;33.83;;
56429;SDS011;42332;52.136;20.666;2022-11-02T02:56:54;107.72;;;28.35;;
56429;SDS011;42332;52.136;20.666;2022-11-02T02:59:23;146.98;;;40.58;;
56429;SDS011;42332;52.136;20.666;2022-11-02T03:01:51;164.65;;;42.65;;
56429;SDS011;42332;52.136;20.666;2022-11-02T03:04:17;146.90;;;39.95;;
56429;SDS011;42332;52.136;20.666;2022-11-02T03:06:44;158.82;;;41.88;;
56429;SDS011;42332;52.136;20.666;2022-11-02T03:12:22;172.32;;;45.25;;
56429;SDS011;42332;52.136;20.666;2022-11-02T03:15:06;151.82;;;41.88;;
56429;SDS011;42332;52.136;20.666;2022-11-02T03:25:53;147.18;;;40.75;;
56429;SDS011;42332;52.136;20.666;2022-11-02T03:31:33;153.73;;;41.42;;
56429;SDS011;42332;52.136;20.666;2022-11-02T03:36:46;135.07;;;37.60;;
56429;SDS011;42332;52.136;20.666;2022-11-02T03:39:14;179.43;;;46.45;;
56429;SDS011;42332;52.136;20.666;2022-11-02T03:41:43;164.38;;;42.78;;
56429;SDS011;42332;52.136;20.666;2022-11-02T03:44:13;165.48;;;42.75;;
56429;SDS011;42332;52.136;20.666;2022-11-02T03:46:45;162.13;;;42.70;;
56429;SDS011;42332;52.136;20.666;2022-11-02T03:49:12;160.65;;;40.63;;
56429;SDS011;42332;52.136;20.666;2022-11-02T03:51:39;144.57;;;43.72;;
56429;SDS011;42332;52.136;20.666;2022-11-02T03:57:03;157.63;;;41.00;;
56429;SDS011;42332;52.136;20.666;2022-11-02T03:59:31;167.00;;;39.70;;
56429;SDS011;42332;52.136;20.666;2022-11-02T04:01:57;168.15;;;42.80;;
56429;SDS011;42332;52.136;20.666;2022-11-02T04:04:23;156.55;;;40.83;;
56429;SDS011;42332;52.136;20.666;2022-11-02T04:06:49;137.82;;;37.90;;
56429;SDS011;42332;52.136;20.666;2022-11-02T04:09:14;162.40;;;45.40;;
56429;SDS011;42332;52.136;20.666;2022-11-02T04:11:40;149.35;;;42.80;;
56429;SDS011;42332;52.136;20.666;2022-11-02T04:14:23;146.30;;;39.30;;
56429;SDS011;42332;52.136;20.666;2022-11-02T04:17:05;101.80;;;30.67;;
56429;SDS011;42332;52.136;20.666;2022-11-02T04:19:50;118.78;;;35.97;;
56429;SDS011;42332;52.136;20.666;2022-11-02T04:22:16;114.57;;;35.22;;
56429;SDS011;42332;52.136;20.666;2022-11-02T04:25:01;152.63;;;41.15;;
56429;SDS011;42332;52.136;20.666;2022-11-02T04:27:45;111.80;;;33.78;;
56429;SDS011;42332;52.136;20.666;2022-11-02T04:30:18;136.65;;;40.83;;
56429;SDS011;42332;52.136;20.666;2022-11-02T04:32:45;142.55;;;39.97;;
56429;SDS011;42332;52.136;20.666;2022-11-02T04:35:30;162.10;;;42.92;;
56429;SDS011;42332;52.136;20.666;2022-11-02T04:37:56;159.68;;;42.47;;
56429;SDS011;42332;52.136;20.666;2022-11-02T04:40:40;149.63;;;40.88;;
56429;SDS011;42332;52.136;20.666;2022-11-02T04:43:06;144.02;;;41.78;;
56429;SDS011;42332;52.136;20.666;2022-11-02T04:45:31;171.77;;;43.20;;
56429;SDS011;42332;52.136;20.666;2022-11-02T04:48:02;130.32;;;37.30;;
56429;SDS011;42332;52.136;20.666;2022-11-02T04:50:29;135.32;;;38.05;;
56429;SDS011;42332;52.136;20.666;2022-11-02T04:52:58;139.63;;;39.17;;
56429;SDS011;42332;52.136;20.666;2022-11-02T04:55:25;158.20;;;43.38;;
56429;SDS011;42332;52.136;20.666;2022-11-02T04:57:51;132.75;;;37.58;;
56429;SDS011;42332;52.136;20.666;2022-11-02T05:00:17;152.98;;;40.38;;
56429;SDS011;42332;52.136;20.666;2022-11-02T05:02:44;157.30;;;40.30;;
56429;SDS011;42332;52.136;20.666;2022-11-02T05:05:13;142.23;;;38.53;;
56429;SDS011;42332;52.136;20.666;2022-11-02T05:07:39;145.32;;;41.47;;
56429;SDS011;42332;52.136;20.666;2022-11-02T05:10:05;151.93;;;39.10;;
56429;SDS011;42332;52.136;20.666;2022-11-02T05:12:30;125.38;;;36.00;;
56429;SDS011;42332;52.136;20.666;2022-11-02T05:14:56;176.20;;;43.72;;
56429;SDS011;42332;52.136;20.666;2022-11-02T05:17:21;182.48;;;44.88;;
56429;SDS011;42332;52.136;20.666;2022-11-02T05:19:47;176.50;;;43.70;;
56429;SDS011;42332;52.136;20.666;2022-11-02T05:22:12;144.18;;;41.92;;
56429;SDS011;42332;52.136;20.666;2022-11-02T05:24:37;158.80;;;41.75;;
56429;SDS011;42332;52.136;20.666;2022-11-02T05:27:03;154.32;;;43.17;;
56429;SDS011;42332;52.136;20.666;2022-11-02T05:29:29;171.65;;;46.55;;
56429;SDS011;42332;52.136;20.666;2022-11-02T05:31:55;169.90;;;44.35;;
56429;SDS011;42332;52.136;20.666;2022-11-02T05:34:21;174.85;;;47.65;;
56429;SDS011;42332;52.136;20.666;2022-11-02T05:36:46;132.90;;;39.28;;
56429;SDS011;42332;52.136;20.666;2022-11-02T05:39:12;151.73;;;44.33;;
56429;SDS011;42332;52.136;20.666;2022-11-02T05:41:38;137.38;;;39.00;;
56429;SDS011;42332;52.136;20.666;2022-11-02T05:44:04;150.32;;;43.47;;
56429;SDS011;42332;52.136;20.666;2022-11-02T05:46:29;156.93;;;46.33;;
56429;SDS011;42332;52.136;20.666;2022-11-02T05:48:55;138.32;;;39.75;;
56429;SDS011;42332;52.136;20.666;2022-11-02T05:51:20;145.93;;;41.47;;
56429;SDS011;42332;52.136;20.666;2022-11-02T05:53:45;164.98;;;42.25;;
56429;SDS011;42332;52.136;20.666;2022-11-02T05:56:11;98.50;;;34.00;;
56429;SDS011;42332;52.136;20.666;2022-11-02T05:58:38;144.38;;;43.28;;
56429;SDS011;42332;52.136;20.666;2022-11-02T06:01:05;175.52;;;47.85;;
56429;SDS011;42332;52.136;20.666;2022-11-02T06:03:31;168.13;;;43.80;;
56429;SDS011;42332;52.136;20.666;2022-11-02T06:06:01;148.38;;;43.97;;
56429;SDS011;42332;52.136;20.666;2022-11-02T06:08:31;145.65;;;42.03;;
56429;SDS011;42332;52.136;20.666;2022-11-02T06:11:03;119.15;;;35.05;;
56429;SDS011;42332;52.136;20.666;2022-11-02T06:13:30;153.48;;;46.85;;
56429;SDS011;42332;52.136;20.666;2022-11-02T06:15:59;146.45;;;43.05;;
56429;SDS011;42332;52.136;20.666;2022-11-02T06:18:25;128.50;;;38.90;;
56429;SDS011;42332;52.136;20.666;2022-11-02T06:20:51;97.88;;;30.75;;
56429;SDS011;42332;52.136;20.666;2022-11-02T06:23:16;137.80;;;40.50;;
56429;SDS011;42332;52.136;20.666;2022-11-02T06:25:42;135.82;;;35.80;;
56429;SDS011;42332;52.136;20.666;2022-11-02T06:28:13;147.43;;;41.17;;
56429;SDS011;42332;52.136;20.666;2022-11-02T06:30:39;132.73;;;39.53;;
56429;SDS011;42332;52.136;20.666;2022-11-02T06:33:04;133.63;;;40.83;;
56429;SDS011;42332;52.136;20.666;2022-11-02T06:35:30;138.45;;;36.55;;
56429;SDS011;42332;52.136;20.666;2022-11-02T06:37:55;129.88;;;38.22;;
56429;SDS011;42332;52.136;20.666;2022-11-02T06:40:20;135.40;;;34.65;;
56429;SDS011;42332;52.136;20.666;2022-11-02T06:42:45;125.22;;;36.28;;
56429;SDS011;42332;52.136;20.666;2022-11-02T06:45:11;116.05;;;36.88;;
56429;SDS011;42332;52.136;20.666;2022-11-02T06:47:36;121.45;;;37.58;;
56429;SDS011;42332;52.136;20.666;2022-11-02T06:50:03;119.13;;;36.05;;
56429;SDS011;42332;52.136;20.666;2022-11-02T06:52:29;106.38;;;31.77;;
56429;SDS011;42332;52.136;20.666;2022-11-02T06:54:54;121.60;;;35.13;;
56429;SDS011;42332;52.136;20.666;2022-11-02T06:57:20;112.15;;;35.58;;
56429;SDS011;42332;52.136;20.666;2022-11-02T06:59:46;108.32;;;31.52;;
56429;SDS011;42332;52.136;20.666;2022-11-02T07:02:11;111.35;;;34.75;;
56429;SDS011;42332;52.136;20.666;2022-11-02T07:04:36;115.72;;;34.05;;
56429;SDS011;42332;52.136;20.666;2022-11-02T07:07:02;114.03;;;34.15;;
56429;SDS011;42332;52.136;20.666;2022-11-02T07:09:27;115.25;;;34.53;;
56429;SDS011;42332;52.136;20.666;2022-11-02T07:11:52;102.95;;;32.85;;
56429;SDS011;42332;52.136;20.666;2022-11-02T07:14:18;97.20;;;31.75;;
56429;SDS011;42332;52.136;20.666;2022-11-02T07:16:43;101.68;;;33.22;;
56429;SDS011;42332;52.136;20.666;2022-11-02T07:19:08;96.40;;;32.70;;
56429;SDS011;42332;52.136;20.666;2022-11-02T07:21:34;91.68;;;32.35;;
56429;SDS011;42332;52.136;20.666;2022-11-02T07:23:59;96.05;;;31.60;;
56429;SDS011;42332;52.136;20.666;2022-11-02T07:26:25;94.05;;;32.13;;
56429;SDS011;42332;52.136;20.666;2022-11-02T07:28:51;87.07;;;30.85;;
56429;SDS011;42332;52.136;20.666;2022-11-02T07:31:16;88.38;;;30.70;;
56429;SDS011;42332;52.136;20.666;2022-11-02T07:33:42;89.40;;;30.52;;
56429;SDS011;42332;52.136;20.666;2022-11-02T07:36:07;85.85;;;30.33;;
56429;SDS011;42332;52.136;20.666;2022-11-02T07:38:33;80.90;;;28.90;;
56429;SDS011;42332;52.136;20.666;2022-11-02T07:40:58;86.78;;;30.63;;
56429;SDS011;42332;52.136;20.666;2022-11-02T07:43:23;99.40;;;31.92;;
56429;SDS011;42332;52.136;20.666;2022-11-02T07:45:49;94.88;;;30.60;;
56429;SDS011;42332;52.136;20.666;2022-11-02T07:48:14;103.63;;;32.92;;
56429;SDS011;42332;52.136;20.666;2022-11-02T07:50:39;95.97;;;31.40;;
56429;SDS011;42332;52.136;20.666;2022-11-02T07:53:05;88.43;;;30.15;;
56429;SDS011;42332;52.136;20.666;2022-11-02T07:55:30;85.15;;;30.83;;
56429;SDS011;42332;52.136;20.666;2022-11-02T07:58:03;58.13;;;23.67;;
56429;SDS011;42332;52.136;20.666;2022-11-02T08:00:32;83.80;;;28.98;;
56429;SDS011;42332;52.136;20.666;2022-11-02T08:03:00;74.97;;;27.20;;
56429;SDS011;42332;52.136;20.666;2022-11-02T08:05:26;67.32;;;27.38;;
56429;SDS011;42332;52.136;20.666;2022-11-02T08:07:58;60.55;;;23.05;;
56429;SDS011;42332;52.136;20.666;2022-11-02T08:10:25;70.05;;;26.02;;
56429;SDS011;42332;52.136;20.666;2022-11-02T08:12:51;66.72;;;24.70;;
56429;SDS011;42332;52.136;20.666;2022-11-02T08:15:16;62.63;;;23.70;;
56429;SDS011;42332;52.136;20.666;2022-11-02T08:17:42;64.60;;;22.92;;
56429;SDS011;42332;52.136;20.666;2022-11-02T08:20:07;72.25;;;22.25;;
56429;SDS011;42332;52.136;20.666;2022-11-02T08:22:37;64.75;;;21.90;;
56429;SDS011;42332;52.136;20.666;2022-11-02T08:25:03;53.95;;;20.80;;
56429;SDS011;42332;52.136;20.666;2022-11-02T08:27:29;48.70;;;19.55;;
56429;SDS011;42332;52.136;20.666;2022-11-02T08:29:54;32.55;;;14.93;;
56429;SDS011;42332;52.136;20.666;2022-11-02T08:32:20;60.33;;;20.65;;
56429;SDS011;42332;52.136;20.666;2022-11-02T08:34:45;46.30;;;16.65;;
56429;SDS011;42332;52.136;20.666;2022-11-02T08:37:10;51.58;;;19.92;;
56429;SDS011;42332;52.136;20.666;2022-11-02T08:39:36;38.22;;;16.40;;
56429;SDS011;42332;52.136;20.666;2022-11-02T08:42:01;54.50;;;20.08;;
56429;SDS011;42332;52.136;20.666;2022-11-02T08:44:26;59.80;;;20.08;;
56429;SDS011;42332;52.136;20.666;2022-11-02T08:46:53;57.50;;;21.27;;
56429;SDS011;42332;52.136;20.666;2022-11-02T08:49:19;55.58;;;20.45;;
56429;SDS011;42332;52.136;20.666;2022-11-02T08:51:45;50.85;;;20.83;;
56429;SDS011;42332;52.136;20.666;2022-11-02T08:54:10;64.03;;;21.15;;
56429;SDS011;42332;52.136;20.666;2022-11-02T08:56:36;56.55;;;21.65;;
56429;SDS011;42332;52.136;20.666;2022-11-02T08:59:01;66.95;;;22.58;;
56429;SDS011;42332;52.136;20.666;2022-11-02T09:01:26;61.78;;;24.33;;
56429;SDS011;42332;52.136;20.666;2022-11-02T09:03:52;66.20;;;21.55;;
56429;SDS011;42332;52.136;20.666;2022-11-02T09:06:17;64.05;;;23.17;;
56429;SDS011;42332;52.136;20.666;2022-11-02T09:08:42;55.03;;;19.35;;
56429;SDS011;42332;52.136;20.666;2022-11-02T09:11:08;50.63;;;20.42;;
56429;SDS011;42332;52.136;20.666;2022-11-02T09:13:33;59.20;;;20.83;;
56429;SDS011;42332;52.136;20.666;2022-11-02T09:15:59;56.38;;;20.25;;
56429;SDS011;42332;52.136;20.666;2022-11-02T09:18:24;48.05;;;19.17;;
56429;SDS011;42332;52.136;20.666;2022-11-02T09:20:50;56.30;;;19.23;;
56429;SDS011;42332;52.136;20.666;2022-11-02T09:23:15;49.47;;;17.92;;
56429;SDS011;42332;52.136;20.666;2022-11-02T09:25:41;56.33;;;21.42;;
56429;SDS011;42332;52.136;20.666;2022-11-02T09:28:07;53.10;;;19.92;;
56429;SDS011;42332;52.136;20.666;2022-11-02T09:30:33;55.63;;;21.15;;
56429;SDS011;42332;52.136;20.666;2022-11-02T09:32:59;48.45;;;19.40;;
56429;SDS011;42332;52.136;20.666;2022-11-02T09:35:31;55.42;;;20.95;;
56429;SDS011;42332;52.136;20.666;2022-11-02T09:37:58;61.85;;;21.73;;
56429;SDS011;42332;52.136;20.666;2022-11-02T09:40:27;49.33;;;19.85;;
56429;SDS011;42332;52.136;20.666;2022-11-02T09:43:01;25.10;;;10.75;;
56429;SDS011;42332;52.136;20.666;2022-11-02T09:45:29;45.97;;;16.73;;
56429;SDS011;42332;52.136;20.666;2022-11-02T09:48:19;36.40;;;15.57;;
56429;SDS011;42332;52.136;20.666;2022-11-02T09:50:47;38.90;;;16.73;;
56429;SDS011;42332;52.136;20.666;2022-11-02T09:53:17;38.70;;;15.27;;
56429;SDS011;42332;52.136;20.666;2022-11-02T09:55:48;45.72;;;17.98;;
56429;SDS011;42332;52.136;20.666;2022-11-02T09:58:18;38.38;;;15.10;;
56429;SDS011;42332;52.136;20.666;2022-11-02T10:00:49;42.95;;;17.02;;
56429;SDS011;42332;52.136;20.666;2022-11-02T10:11:31;43.90;;;16.02;;
56429;SDS011;42332;52.136;20.666;2022-11-02T10:14:20;36.17;;;15.63;;
56429;SDS011;42332;52.136;20.666;2022-11-02T10:17:14;23.10;;;10.30;;
56429;SDS011;42332;52.136;20.666;2022-11-02T10:19:39;42.75;;;15.25;;
56429;SDS011;42332;52.136;20.666;2022-11-02T10:22:05;31.58;;;15.82;;
56429;SDS011;42332;52.136;20.666;2022-11-02T10:24:38;32.30;;;15.65;;
56429;SDS011;42332;52.136;20.666;2022-11-02T10:27:20;28.05;;;13.35;;
56429;SDS011;42332;52.136;20.666;2022-11-02T10:29:58;26.00;;;12.98;;
56429;SDS011;42332;52.136;20.666;2022-11-02T10:32:29;33.22;;;15.18;;
56429;SDS011;42332;52.136;20.666;2022-11-02T10:34:55;26.45;;;11.20;;
56429;SDS011;42332;52.136;20.666;2022-11-02T10:39:59;30.20;;;15.25;;
56429;SDS011;42332;52.136;20.666;2022-11-02T10:47:57;30.08;;;12.68;;
56429;SDS011;42332;52.136;20.666;2022-11-02T10:53:01;35.17;;;14.90;;
56429;SDS011;42332;52.136;20.666;2022-11-02T10:58:08;32.20;;;15.63;;
56429;SDS011;42332;52.136;20.666;2022-11-02T11:00:35;33.85;;;14.75;;
56429;SDS011;42332;52.136;20.666;2022-11-02T11:05:35;31.23;;;14.65;;
56429;SDS011;42332;52.136;20.666;2022-11-02T11:08:03;31.42;;;14.05;;
56429;SDS011;42332;52.136;20.666;2022-11-02T11:10:30;32.13;;;16.30;;
56429;SDS011;42332;52.136;20.666;2022-11-02T11:13:00;24.33;;;10.60;;
56429;SDS011;42332;52.136;20.666;2022-11-02T11:15:30;24.63;;;13.82;;
56429;SDS011;42332;52.136;20.666;2022-11-02T11:17:57;30.48;;;13.50;;
56429;SDS011;42332;52.136;20.666;2022-11-02T11:20:32;30.42;;;13.70;;
56429;SDS011;42332;52.136;20.666;2022-11-02T11:23:19;17.50;;;8.15;;
56429;SDS011;42332;52.136;20.666;2022-11-02T11:28:37;18.38;;;8.98;;
56429;SDS011;42332;52.136;20.666;2022-11-02T11:31:21;26.13;;;12.13;;
56429;SDS011;42332;52.136;20.666;2022-11-02T11:33:49;29.08;;;13.50;;
56429;SDS011;42332;52.136;20.666;2022-11-02T11:36:35;30.38;;;13.65;;
56429;SDS011;42332;52.136;20.666;2022-11-02T11:39:02;27.60;;;12.98;;
56429;SDS011;42332;52.136;20.666;2022-11-02T11:41:32;25.98;;;12.02;;
56429;SDS011;42332;52.136;20.666;2022-11-02T11:43:58;33.08;;;13.95;;
56429;SDS011;42332;52.136;20.666;2022-11-02T11:46:37;29.58;;;15.68;;
56429;SDS011;42332;52.136;20.666;2022-11-02T11:49:03;26.45;;;12.85;;
56429;SDS011;42332;52.136;20.666;2022-11-02T11:51:38;26.27;;;12.25;;
56429;SDS011;42332;52.136;20.666;2022-11-02T11:54:24;31.83;;;14.07;;
56429;SDS011;42332;52.136;20.666;2022-11-02T11:56:55;28.10;;;12.98;;
56429;SDS011;42332;52.136;20.666;2022-11-02T12:01:49;30.55;;;11.68;;
56429;SDS011;42332;52.136;20.666;2022-11-02T12:04:32;24.35;;;11.13;;
56429;SDS011;42332;52.136;20.666;2022-11-02T12:13:03;24.85;;;9.48;;
56429;SDS011;42332;52.136;20.666;2022-11-02T12:15:54;18.73;;;7.85;;
56429;SDS011;42332;52.136;20.666;2022-11-02T12:24:19;21.48;;;10.48;;
56429;SDS011;42332;52.136;20.666;2022-11-02T12:38:43;21.60;;;10.02;;
56429;SDS011;42332;52.136;20.666;2022-11-02T12:44:43;32.45;;;14.25;;
56429;SDS011;42332;52.136;20.666;2022-11-02T12:47:47;31.17;;;13.00;;
56429;SDS011;42332;52.136;20.666;2022-11-02T12:56:15;29.25;;;12.15;;
56429;SDS011;42332;52.136;20.666;2022-11-02T12:58:43;29.48;;;12.55;;
56429;SDS011;42332;52.136;20.666;2022-11-02T13:01:16;28.88;;;13.70;;
56429;SDS011;42332;52.136;20.666;2022-11-02T13:03:53;30.48;;;11.45;;
56429;SDS011;42332;52.136;20.666;2022-11-02T13:06:45;30.17;;;13.02;;
56429;SDS011;42332;52.136;20.666;2022-11-02T13:09:34;23.23;;;9.35;;
56429;SDS011;42332;52.136;20.666;2022-11-02T13:12:04;32.78;;;15.68;;
56429;SDS011;42332;52.136;20.666;2022-11-02T13:14:37;33.55;;;14.95;;
56429;SDS011;42332;52.136;20.666;2022-11-02T13:17:11;31.33;;;13.98;;
56429;SDS011;42332;52.136;20.666;2022-11-02T13:19:42;28.33;;;14.75;;
56429;SDS011;42332;52.136;20.666;2022-11-02T13:22:12;33.75;;;14.75;;
56429;SDS011;42332;52.136;20.666;2022-11-02T13:24:39;26.05;;;11.70;;
56429;SDS011;42332;52.136;20.666;2022-11-02T13:27:08;31.70;;;15.10;;
56429;SDS011;42332;52.136;20.666;2022-11-02T13:29:45;30.80;;;15.25;;
56429;SDS011;42332;52.136;20.666;2022-11-02T13:34:44;30.55;;;14.45;;
56429;SDS011;42332;52.136;20.666;2022-11-02T13:39:45;40.78;;;15.32;;
56429;SDS011;42332;52.136;20.666;2022-11-02T13:42:32;31.42;;;13.05;;
56429;SDS011;42332;52.136;20.666;2022-11-02T13:50:38;37.35;;;15.75;;
56429;SDS011;42332;52.136;20.666;2022-11-02T13:53:07;31.45;;;15.25;;
56429;SDS011;42332;52.136;20.666;2022-11-02T13:55:52;30.88;;;14.55;;
56429;SDS011;42332;52.136;20.666;2022-11-02T14:00:53;33.20;;;15.55;;
56429;SDS011;42332;52.136;20.666;2022-11-02T14:03:30;32.08;;;15.07;;
56429;SDS011;42332;52.136;20.666;2022-11-02T14:05:58;35.15;;;15.98;;
56429;SDS011;42332;52.136;20.666;2022-11-02T14:16:38;46.78;;;17.13;;
56429;SDS011;42332;52.136;20.666;2022-11-02T14:19:12;30.00;;;15.98;;
56429;SDS011;42332;52.136;20.666;2022-11-02T14:26:56;39.15;;;17.48;;
56429;SDS011;42332;52.136;20.666;2022-11-02T14:29:37;36.35;;;17.67;;
56429;SDS011;42332;52.136;20.666;2022-11-02T14:40:38;37.33;;;17.55;;
56429;SDS011;42332;52.136;20.666;2022-11-02T14:46:17;44.55;;;18.50;;
56429;SDS011;42332;52.136;20.666;2022-11-02T14:49:03;37.78;;;17.65;;
56429;SDS011;42332;52.136;20.666;2022-11-02T14:51:30;32.15;;;17.30;;
56429;SDS011;42332;52.136;20.666;2022-11-02T14:54:16;39.15;;;18.60;;
56429;SDS011;42332;52.136;20.666;2022-11-02T14:57:00;39.58;;;18.60;;
56429;SDS011;42332;52.136;20.666;2022-11-02T14:59:31;40.50;;;19.23;;
56429;SDS011;42332;52.136;20.666;2022-11-02T15:01:59;46.40;;;20.77;;
56429;SDS011;42332;52.136;20.666;2022-11-02T15:04:30;41.03;;;18.50;;
56429;SDS011;42332;52.136;20.666;2022-11-02T15:06:58;46.78;;;20.88;;
56429;SDS011;42332;52.136;20.666;2022-11-02T15:12:26;65.15;;;28.23;;
56429;SDS011;42332;52.136;20.666;2022-11-02T15:14:56;63.20;;;27.73;;
56429;SDS011;42332;52.136;20.666;2022-11-02T15:19:49;63.20;;;28.08;;
56429;SDS011;42332;52.136;20.666;2022-11-02T15:25:35;47.83;;;21.57;;
56429;SDS011;42332;52.136;20.666;2022-11-02T15:28:05;46.33;;;19.67;;
56429;SDS011;42332;52.136;20.666;2022-11-02T15:30:36;48.33;;;21.80;;
56429;SDS011;42332;52.136;20.666;2022-11-02T15:33:04;49.67;;;21.63;;
56429;SDS011;42332;52.136;20.666;2022-11-02T15:35:32;64.15;;;24.63;;
56429;SDS011;42332;52.136;20.666;2022-11-02T15:37:59;51.60;;;25.42;;
56429;SDS011;42332;52.136;20.666;2022-11-02T15:51:04;61.20;;;23.00;;
56429;SDS011;42332;52.136;20.666;2022-11-02T16:04:36;40.72;;;17.92;;
56429;SDS011;42332;52.136;20.666;2022-11-02T16:07:03;52.65;;;19.90;;
56429;SDS011;42332;52.136;20.666;2022-11-02T16:14:37;53.88;;;25.70;;
56429;SDS011;42332;52.136;20.666;2022-11-02T16:17:03;61.97;;;26.67;;
56429;SDS011;42332;52.136;20.666;2022-11-02T16:19:28;51.75;;;24.50;;
56429;SDS011;42332;52.136;20.666;2022-11-02T16:21:54;47.85;;;21.17;;
56429;SDS011;42332;52.136;20.666;2022-11-02T16:24:19;62.55;;;30.23;;
56429;SDS011;42332;52.136;20.666;2022-11-02T16:26:45;82.22;;;36.60;;
56429;SDS011;42332;52.136;20.666;2022-11-02T16:29:10;63.97;;;29.05;;
56429;SDS011;42332;52.136;20.666;2022-11-02T16:31:39;74.65;;;29.23;;
56429;SDS011;42332;52.136;20.666;2022-11-02T16:36:42;69.53;;;31.10;;
56429;SDS011;42332;52.136;20.666;2022-11-02T16:41:40;47.20;;;16.70;;
56429;SDS011;42332;52.136;20.666;2022-11-02T16:44:12;27.17;;;12.88;;
56429;SDS011;42332;52.136;20.666;2022-11-02T16:51:35;27.63;;;11.40;;
56429;SDS011;42332;52.136;20.666;2022-11-02T16:57:17;26.75;;;9.93;;
56429;SDS011;42332;52.136;20.666;2022-11-02T16:59:48;26.27;;;9.70;;
56429;SDS011;42332;52.136;20.666;2022-11-02T17:02:31;32.08;;;9.48;;
56429;SDS011;42332;52.136;20.666;2022-11-02T17:05:01;32.15;;;10.80;;
56429;SDS011;42332;52.136;20.666;2022-11-02T17:07:31;28.35;;;10.70;;
56429;SDS011;42332;52.136;20.666;2022-11-02T17:09:57;27.55;;;12.48;;
56429;SDS011;42332;52.136;20.666;2022-11-02T17:14:54;33.00;;;12.80;;
56429;SDS011;42332;52.136;20.666;2022-11-02T17:19:55;26.67;;;11.52;;
56429;SDS011;42332;52.136;20.666;2022-11-02T17:22:26;31.27;;;11.90;;
56429;SDS011;42332;52.136;20.666;2022-11-02T17:25:18;30.98;;;12.35;;
56429;SDS011;42332;52.136;20.666;2022-11-02T17:27:49;31.23;;;10.00;;